Time;durP1;ratioP1;P1;durP2;ratioP2;P2;SDS_P1;SDS_P2;PMS_P1;PMS_P2;Temp;Humidity;BMP_temperature;BMP_pressure;BME280_temperature;BME280_humidity;BME280_pressure;Samples;Min_cycle;Max_cycle;Signal;HPM_P1;HPM_P2
2023/03/30 00:01:29;;;;;;;;;;;;;;;13.15;73.71;100571.31;5022804;28;19925;-72
2023/03/30 00:03:54;;;;;;;;;;;;;;;13.25;72.79;100559.28;5023579;28;19917;-72
2023/03/30 00:06:21;;;;;;;;;;;;;;;13.32;72.96;100560.19;5023890;28;20062;-72
2023/03/30 00:08:47;;;;;;;;;;;;;;;13.32;72.18;100557.53;5025059;28;20051;-72
2023/03/30 00:11:14;;;;;;;;;;;;;;;13.31;72.51;100542.53;5022959;28;20008;-72
2023/03/30 00:13:40;;;;;;;;;;;;;;;13.27;72.48;100538.59;5020361;28;19925;-74
2023/03/30 00:16:06;;;;;;;;;;;;;;;13.19;72.73;100535.25;5025133;28;19928;-72
2023/03/30 00:18:33;;;;;;;;;;;;;;;13.12;72.96;100537.03;5020685;28;20412;-75
2023/03/30 00:20:58;;;;;;;;;;;;;;;13.06;72.94;100535.16;5028675;28;20345;-73
2023/03/30 00:23:24;;;;;;;;;;;;;;;13.02;73.00;100530.22;5025670;28;19924;-73
2023/03/30 00:25:49;;;;;;;;;;;;;;;12.97;73.30;100529.94;5026591;28;19928;-73
2023/03/30 00:28:15;;;;;;;;;;;;;;;12.94;73.29;100530.31;5015940;28;19913;-73
2023/03/30 00:30:40;;;;;;;;;;;;;;;12.93;73.11;100535.84;5026454;28;19971;-74
2023/03/30 00:33:06;;;;;;;;;;;;;;;12.90;73.36;100530.91;5025668;28;19928;-74
2023/03/30 00:35:31;;;;;;;;;;;;;;;12.87;73.25;100531.31;5026169;28;19992;-73
2023/03/30 00:37:56;;;;;;;;;;;;;;;12.86;73.42;100513.66;5022638;28;20377;-73
2023/03/30 00:40:22;;;;;;;;;;;;;;;12.88;73.41;100511.63;5018013;28;19925;-74
2023/03/30 00:42:48;;;;;;;;;;;;;;;12.88;73.06;100508.97;5021522;28;20299;-73
2023/03/30 00:45:18;;;;;;;;;;;;;;;12.92;73.07;100504.88;5021260;28;19964;-74
2023/03/30 00:47:47;;;;;;;;;;;;;;;12.93;72.67;100470.03;5019545;28;20404;-73
2023/03/30 00:50:13;;;;;;;;;;;;;;;12.95;72.93;100468.00;5026697;28;20399;-73
2023/03/30 00:52:40;;;;;;;;;;;;;;;12.97;72.25;100468.63;5018985;28;19917;-74
2023/03/30 00:55:06;;;;;;;;;;;;;;;13.00;72.07;100476.25;5020720;28;19922;-74
2023/03/30 00:57:35;;;;;;;;;;;;;;;12.98;72.00;100478.28;5016959;28;19929;-73
2023/03/30 01:00:00;;;;;;;;;;;;;;;13.01;71.54;100479.75;5020889;28;20600;-76
2023/03/30 01:02:30;;;;;;;;;;;;;;;13.05;71.37;100475.69;5017632;28;20609;-73
2023/03/30 01:04:56;;;;;;;;;;;;;;;13.08;70.82;100467.28;5018481;28;19925;-73
2023/03/30 01:07:23;;;;;;;;;;;;;;;13.08;70.67;100477.13;5016754;28;19923;-74
2023/03/30 01:09:49;;;;;;;;;;;;;;;13.14;70.84;100468.34;5019162;28;19951;-73
2023/03/30 01:12:14;;;;;;;;;;;;;;;13.14;70.65;100463.00;5025711;28;19921;-74
2023/03/30 01:14:40;;;;;;;;;;;;;;;13.14;70.43;100468.34;5022523;28;19925;-73
2023/03/30 01:17:25;;;;;;;;;;;;;;;13.14;70.38;100471.81;5022909;28;19952;-74
2023/03/30 01:20:11;;;;;;;;;;;;;;;13.13;70.52;100472.03;5018625;28;19967;-75
2023/03/30 01:22:55;;;;;;;;;;;;;;;13.12;70.13;100476.53;5024246;28;19917;-78
2023/03/30 01:25:20;;;;;;;;;;;;;;;13.16;70.05;100479.63;5024424;28;19941;-73
2023/03/30 01:28:00;;;;;;;;;;;;;;;13.26;70.10;100474.78;5019638;28;19917;-74
2023/03/30 01:30:42;;;;;;;;;;;;;;;13.42;69.67;100465.66;5022555;28;20029;-73
2023/03/30 01:33:20;;;;;;;;;;;;;;;13.56;69.20;100467.34;5024399;28;19935;-73
2023/03/30 01:35:45;;;;;;;;;;;;;;;13.65;68.81;100450.16;5022890;28;19932;-73
2023/03/30 01:38:22;;;;;;;;;;;;;;;13.68;68.66;100452.41;5026155;28;19925;-76
2023/03/30 01:40:57;;;;;;;;;;;;;;;13.68;68.73;100451.59;5021232;28;20011;-73
2023/03/30 01:43:33;;;;;;;;;;;;;;;13.68;68.77;100455.09;5008213;28;19944;-73
2023/03/30 01:46:03;;;;;;;;;;;;;;;13.68;68.29;100444.41;5008312;28;19971;-74
2023/03/30 01:48:34;;;;;;;;;;;;;;;13.70;68.58;100431.69;5024519;28;19917;-74
2023/03/30 01:51:03;;;;;;;;;;;;;;;13.73;68.29;100430.47;5025404;28;19917;-74
2023/03/30 01:53:41;;;;;;;;;;;;;;;13.70;68.43;100434.34;5025744;28;19923;-73
2023/03/30 01:56:11;;;;;;;;;;;;;;;13.60;68.71;100433.94;5026966;28;19921;-73
2023/03/30 01:58:44;;;;;;;;;;;;;;;13.49;69.01;100439.81;5019455;28;19925;-74
2023/03/30 02:01:13;;;;;;;;;;;;;;;13.38;68.99;100448.41;5024555;28;20076;-74
2023/03/30 02:03:40;;;;;;;;;;;;;;;13.28;69.39;100457.56;5020512;28;19917;-74
2023/03/30 02:06:25;;;;;;;;;;;;;;;13.20;69.36;100459.56;5028301;28;20000;-73
2023/03/30 02:08:53;;;;;;;;;;;;;;;13.11;69.70;100447.41;5003933;28;19929;-73
2023/03/30 02:11:18;;;;;;;;;;;;;;;13.07;69.95;100456.81;5027046;28;19924;-73
2023/03/30 02:13:45;;;;;;;;;;;;;;;13.11;69.84;100458.91;5022826;28;19921;-73
2023/03/30 02:16:14;;;;;;;;;;;;;;;13.17;70.07;100458.13;5023287;28;19920;-73
2023/03/30 02:18:39;;;;;;;;;;;;;;;13.22;70.23;100458.34;5020379;28;19921;-73
2023/03/30 02:21:04;;;;;;;;;;;;;;;13.26;70.11;100459.59;5025203;28;20279;-73
2023/03/30 02:23:33;;;;;;;;;;;;;;;13.28;70.43;100465.56;5016049;28;21219;-73
2023/03/30 02:25:59;;;;;;;;;;;;;;;13.28;70.32;100459.41;5011627;28;19921;-73
2023/03/30 02:28:25;;;;;;;;;;;;;;;13.28;70.42;100460.22;5019602;28;19917;-74
2023/03/30 02:30:50;;;;;;;;;;;;;;;13.31;70.33;100453.72;5022203;28;20349;-74
2023/03/30 02:33:34;;;;;;;;;;;;;;;13.41;70.71;100453.34;5012641;28;19925;-72
2023/03/30 02:36:25;;;;;;;;;;;;;;;13.52;70.59;100452.75;5019667;28;19927;-73
2023/03/30 02:39:11;;;;;;;;;;;;;;;13.53;70.55;100457.88;5019827;28;19925;-74
2023/03/30 02:41:48;;;;;;;;;;;;;;;13.60;70.57;100452.59;5023210;28;19918;-75
2023/03/30 02:44:32;;;;;;;;;;;;;;;13.57;70.53;100463.66;5025966;28;19979;-74
2023/03/30 02:47:18;;;;;;;;;;;;;;;13.55;70.44;100455.84;5020605;28;20404;-72
2023/03/30 02:49:49;;;;;;;;;;;;;;;13.55;70.35;100471.84;5022519;28;19921;-73
2023/03/30 02:52:21;;;;;;;;;;;;;;;13.56;70.77;100462.00;5022446;28;19925;-74
2023/03/30 02:54:49;;;;;;;;;;;;;;;13.54;70.72;100459.53;5016379;28;19960;-73
2023/03/30 02:57:21;;;;;;;;;;;;;;;13.52;70.78;100461.56;5021682;28;19928;-73
2023/03/30 02:59:50;;;;;;;;;;;;;;;13.51;70.77;100451.94;5027847;28;19971;-73
2023/03/30 03:02:19;;;;;;;;;;;;;;;13.51;70.88;100449.25;5024366;28;19971;-73
2023/03/30 03:04:45;;;;;;;;;;;;;;;13.51;70.74;100443.94;5025286;28;20004;-73
2023/03/30 03:07:11;;;;;;;;;;;;;;;13.50;70.81;100454.78;5022637;28;19921;-73
2023/03/30 03:09:37;;;;;;;;;;;;;;;13.49;70.63;100455.81;5020722;28;21191;-74
2023/03/30 03:12:02;;;;;;;;;;;;;;;13.49;70.65;100447.81;5022102;28;19921;-73
2023/03/30 03:14:28;;;;;;;;;;;;;;;13.48;70.79;100452.34;5023364;28;19937;-73
2023/03/30 03:16:53;;;;;;;;;;;;;;;13.44;70.98;100458.28;5027996;28;19913;-73
2023/03/30 03:19:19;;;;;;;;;;;;;;;13.42;71.01;100453.13;5023558;28;19967;-73
2023/03/30 03:21:44;;;;;;;;;;;;;;;13.41;71.12;100456.00;5029702;28;19953;-73
2023/03/30 03:24:12;;;;;;;;;;;;;;;13.40;70.98;100455.19;5024054;28;20166;-76
2023/03/30 03:26:37;;;;;;;;;;;;;;;13.42;71.02;100454.97;5022014;28;19917;-75
2023/03/30 03:29:02;;;;;;;;;;;;;;;13.39;70.91;100450.88;5023497;28;19929;-73
2023/03/30 03:31:27;;;;;;;;;;;;;;;13.35;71.21;100443.47;5020575;28;19924;-74
2023/03/30 03:33:53;;;;;;;;;;;;;;;13.35;71.22;100438.13;5020854;28;19992;-74
2023/03/30 03:36:18;;;;;;;;;;;;;;;13.33;71.18;100415.16;5030270;28;19924;-73
2023/03/30 03:38:43;;;;;;;;;;;;;;;13.37;70.98;100425.41;5025973;28;20310;-74
2023/03/30 03:41:09;;;;;;;;;;;;;;;13.39;71.12;100418.84;5029057;28;19913;-73
2023/03/30 03:43:35;;;;;;;;;;;;;;;13.39;71.11;100407.38;5028467;28;20524;-73
2023/03/30 03:46:00;;;;;;;;;;;;;;;13.39;70.85;100413.53;5029472;28;19924;-73
2023/03/30 03:48:25;;;;;;;;;;;;;;;13.44;70.89;100419.06;5030097;28;19920;-74
2023/03/30 03:50:52;;;;;;;;;;;;;;;13.44;70.88;100420.94;5026808;28;20452;-74
2023/03/30 03:53:17;;;;;;;;;;;;;;;13.45;70.91;100427.91;5027136;28;19924;-73
2023/03/30 03:55:42;;;;;;;;;;;;;;;13.40;71.06;100425.00;5027880;28;19925;-73
2023/03/30 03:58:08;;;;;;;;;;;;;;;13.29;71.02;100397.06;5028450;28;20271;-74
2023/03/30 04:00:33;;;;;;;;;;;;;;;13.29;71.38;100403.22;5026878;28;19917;-73
2023/03/30 04:02:58;;;;;;;;;;;;;;;13.25;71.32;100409.13;5029202;28;20596;-73
2023/03/30 04:05:24;;;;;;;;;;;;;;;13.24;70.93;100418.16;5025597;28;19917;-73
2023/03/30 04:07:52;;;;;;;;;;;;;;;13.23;70.86;100414.66;5028852;28;19917;-72
2023/03/30 04:10:18;;;;;;;;;;;;;;;13.27;70.89;100420.44;5025041;28;19925;-73
2023/03/30 04:12:43;;;;;;;;;;;;;;;13.27;71.27;100423.09;5025129;28;20304;-74
2023/03/30 04:15:08;;;;;;;;;;;;;;;13.17;72.47;100426.13;5026273;28;20390;-73
2023/03/30 04:17:34;;;;;;;;;;;;;;;12.70;75.71;100422.31;5025422;28;19928;-71
2023/03/30 04:20:01;;;;;;;;;;;;;;;12.26;78.44;100432.44;5024276;28;19918;-72
2023/03/30 04:22:29;;;;;;;;;;;;;;;12.04;80.86;100419.13;5027762;28;19986;-73
2023/03/30 04:24:55;;;;;;;;;;;;;;;12.05;81.93;100414.63;5026127;28;19917;-72
2023/03/30 04:27:24;;;;;;;;;;;;;;;12.15;82.72;100422.31;5024452;28;19928;-72
2023/03/30 04:29:50;;;;;;;;;;;;;;;12.17;83.39;100415.78;5024102;28;19979;-71
2023/03/30 04:32:19;;;;;;;;;;;;;;;12.14;83.65;100402.00;5021111;28;19929;-72
2023/03/30 04:34:44;;;;;;;;;;;;;;;12.12;84.06;100409.38;5022491;28;19940;-73
2023/03/30 04:37:10;;;;;;;;;;;;;;;12.10;84.48;100410.38;5022082;28;19967;-72
2023/03/30 04:39:35;;;;;;;;;;;;;;;12.10;84.44;100407.72;5017617;28;19976;-72
2023/03/30 04:42:02;;;;;;;;;;;;;;;12.03;84.71;100400.69;5023701;28;19921;-73
2023/03/30 04:44:28;;;;;;;;;;;;;;;12.06;85.17;100410.97;5014651;28;20526;-73
2023/03/30 04:46:53;;;;;;;;;;;;;;;12.06;85.38;100403.78;5022714;28;19921;-72
2023/03/30 04:49:18;;;;;;;;;;;;;;;12.05;85.50;100393.34;5024438;28;19921;-73
2023/03/30 04:51:44;;;;;;;;;;;;;;;12.07;85.38;100409.94;5024836;28;20541;-72
2023/03/30 04:54:09;;;;;;;;;;;;;;;12.05;85.64;100409.31;5022334;28;20394;-73
2023/03/30 04:56:35;;;;;;;;;;;;;;;12.05;85.83;100418.13;5021317;28;19925;-72
2023/03/30 04:59:00;;;;;;;;;;;;;;;12.05;85.64;100431.41;5026551;28;20024;-73
2023/03/30 05:01:25;;;;;;;;;;;;;;;12.03;85.76;100433.44;5016973;28;20398;-72
2023/03/30 05:03:50;;;;;;;;;;;;;;;11.84;87.41;100444.72;5019744;28;20008;-71
2023/03/30 05:06:16;;;;;;;;;;;;;;;11.56;89.21;100438.41;4998837;28;20016;-70
2023/03/30 05:08:41;;;;;;;;;;;;;;;11.28;91.34;100435.66;5026014;28;19960;-71
2023/03/30 05:11:06;;;;;;;;;;;;;;;11.14;93.10;100429.31;5018681;28;19921;-71
2023/03/30 05:13:31;;;;;;;;;;;;;;;11.09;94.35;100437.84;5023390;28;19964;-71
2023/03/30 05:15:57;;;;;;;;;;;;;;;11.06;95.29;100440.88;5021495;28;19979;-72
2023/03/30 05:18:22;;;;;;;;;;;;;;;11.08;95.80;100428.22;5017362;28;19921;-71
2023/03/30 05:20:48;;;;;;;;;;;;;;;11.12;95.71;100431.34;5020568;28;19922;-72
2023/03/30 05:23:13;;;;;;;;;;;;;;;11.20;95.76;100439.22;5024062;28;19928;-72
2023/03/30 05:25:42;;;;;;;;;;;;;;;11.27;95.75;100448.09;5023366;28;19958;-72
2023/03/30 05:28:08;;;;;;;;;;;;;;;11.32;95.68;100442.25;5012877;28;19925;-73
2023/03/30 05:30:33;;;;;;;;;;;;;;;11.35;95.87;100440.03;5018916;28;20359;-72
2023/03/30 05:32:58;;;;;;;;;;;;;;;11.24;96.46;100444.97;5020304;28;19917;-72
2023/03/30 05:35:23;;;;;;;;;;;;;;;11.17;96.79;100440.41;5021893;28;20344;-72
2023/03/30 05:37:49;;;;;;;;;;;;;;;11.21;97.42;100443.50;5021990;28;19944;-73
2023/03/30 05:40:14;;;;;;;;;;;;;;;11.26;97.53;100437.63;5025663;28;19924;-72
2023/03/30 05:42:40;;;;;;;;;;;;;;;11.31;97.20;100437.94;5026758;28;19940;-73
2023/03/30 05:45:06;;;;;;;;;;;;;;;11.31;96.73;100443.25;5024809;28;19951;-75
2023/03/30 05:47:32;;;;;;;;;;;;;;;11.32;96.52;100439.59;5020735;28;19929;-72
2023/03/30 05:49:57;;;;;;;;;;;;;;;11.35;96.33;100444.53;5023931;28;19917;-72
2023/03/30 05:52:22;;;;;;;;;;;;;;;11.35;96.04;100440.03;5026670;28;20015;-72
2023/03/30 05:54:47;;;;;;;;;;;;;;;11.33;95.94;100446.56;5017989;28;20005;-72
2023/03/30 05:57:13;;;;;;;;;;;;;;;11.30;96.18;100447.75;5014102;28;20023;-72
2023/03/30 05:59:38;;;;;;;;;;;;;;;11.27;96.38;100444.59;5024442;28;20333;-73
2023/03/30 06:02:05;;;;;;;;;;;;;;;11.27;96.35;100444.59;5025884;28;19921;-72
2023/03/30 06:04:30;;;;;;;;;;;;;;;11.26;96.34;100451.75;5021665;28;20012;-72
2023/03/30 06:06:55;;;;;;;;;;;;;;;11.25;96.41;100452.75;5019256;28;20016;-72
2023/03/30 06:09:22;;;;;;;;;;;;;;;11.23;96.60;100454.78;5023644;28;20582;-73
2023/03/30 06:11:48;;;;;;;;;;;;;;;11.23;96.24;100454.78;5028065;28;19944;-73
2023/03/30 06:14:13;;;;;;;;;;;;;;;11.23;96.25;100441.50;5018871;28;19948;-72
2023/03/30 06:16:38;;;;;;;;;;;;;;;11.21;95.85;100451.50;5019119;28;19925;-73
2023/03/30 06:19:03;;;;;;;;;;;;;;;11.21;95.96;100448.00;5020115;28;19982;-72
2023/03/30 06:21:28;;;;;;;;;;;;;;;11.19;95.43;100466.78;5025659;28;19956;-72
2023/03/30 06:23:53;;;;;;;;;;;;;;;11.18;95.75;100460.66;5021754;28;19917;-72
2023/03/30 06:26:19;;;;;;;;;;;;;;;11.19;95.18;100466.78;5027042;28;19918;-72
2023/03/30 06:28:44;;;;;;;;;;;;;;;11.21;95.29;100464.78;5023401;28;19925;-72
2023/03/30 06:31:09;;;;;;;;;;;;;;;11.22;94.93;100468.25;5029394;28;19921;-72
2023/03/30 06:33:36;;;;;;;;;;;;;;;11.23;94.58;100477.88;5026930;28;19986;-73
2023/03/30 06:36:01;;;;;;;;;;;;;;;11.23;94.83;100477.88;5023845;28;19925;-72
2023/03/30 06:38:26;;;;;;;;;;;;;;;11.26;95.17;100481.00;5023484;28;20480;-73
2023/03/30 06:40:51;;;;;;;;;;;;;;;11.27;94.59;100484.47;5026474;28;19916;-73
2023/03/30 06:43:18;;;;;;;;;;;;;;;11.31;93.93;100505.22;5020162;28;19924;-72
2023/03/30 06:45:48;;;;;;;;;;;;;;;11.32;94.18;100487.44;5015253;28;19921;-75
2023/03/30 06:48:13;;;;;;;;;;;;;;;11.32;93.60;100482.13;5028735;28;20490;-73
2023/03/30 06:50:39;;;;;;;;;;;;;;;11.32;93.55;100487.44;5026035;28;19971;-72
2023/03/30 06:53:04;;;;;;;;;;;;;;;11.27;93.63;100477.31;5024692;28;19921;-73
2023/03/30 06:55:29;;;;;;;;;;;;;;;11.27;93.27;100489.78;5024173;28;20304;-72
2023/03/30 06:57:55;;;;;;;;;;;;;;;11.23;93.25;100493.84;5023818;28;20394;-75
2023/03/30 07:00:20;;;;;;;;;;;;;;;11.23;93.48;100488.50;5019983;28;19944;-74
2023/03/30 07:02:45;;;;;;;;;;;;;;;11.29;93.53;100488.63;5030435;28;19952;-74
2023/03/30 07:05:11;;;;;;;;;;;;;;;11.36;93.17;100494.03;5021652;28;19932;-75
2023/03/30 07:07:37;;;;;;;;;;;;;;;11.32;93.37;100493.56;5025366;28;19925;-75
2023/03/30 07:10:09;;;;;;;;;;;;;;;11.42;92.94;100480.81;5026081;28;19972;-73
2023/03/30 07:12:34;;;;;;;;;;;;;;;11.45;92.85;100499.06;5024991;28;19924;-73
2023/03/30 07:15:00;;;;;;;;;;;;;;;11.52;92.73;100498.31;5028102;28;19917;-73
2023/03/30 07:17:26;;;;;;;;;;;;;;;11.56;92.80;100497.75;5028653;28;19992;-73
2023/03/30 07:19:51;;;;;;;;;;;;;;;11.60;92.97;100495.56;5022734;28;19978;-72
2023/03/30 07:22:16;;;;;;;;;;;;;;;11.63;92.21;100504.00;5025836;28;19992;-72
2023/03/30 07:24:43;;;;;;;;;;;;;;;11.67;91.89;100512.44;5024196;28;19960;-73
2023/03/30 07:27:08;;;;;;;;;;;;;;;11.72;92.28;100516.19;5019670;28;20307;-72
2023/03/30 07:29:33;;;;;;;;;;;;;;;11.79;91.41;100521.59;5021476;28;19970;-74
2023/03/30 07:31:59;;;;;;;;;;;;;;;11.85;91.48;100518.19;5029614;28;19917;-72
2023/03/30 07:34:24;;;;;;;;;;;;;;;11.95;91.20;100521.41;5021180;28;19925;-73
2023/03/30 07:36:49;;;;;;;;;;;;;;;11.94;90.63;100502.97;5023860;28;19917;-72
2023/03/30 07:39:14;;;;;;;;;;;;;;;12.00;90.33;100523.50;5021695;28;19922;-73
2023/03/30 07:41:40;;;;;;;;;;;;;;;11.96;89.61;100525.72;5030126;28;19913;-72
2023/03/30 07:44:05;;;;;;;;;;;;;;;11.97;89.54;100530.03;5024990;28;19925;-76
2023/03/30 07:46:30;;;;;;;;;;;;;;;11.96;89.10;100533.69;5011771;28;19917;-73
2023/03/30 07:48:55;;;;;;;;;;;;;;;11.96;89.23;100536.34;5020871;28;19957;-74
2023/03/30 07:51:21;;;;;;;;;;;;;;;11.94;88.91;100546.38;5018173;28;20012;-76
2023/03/30 07:53:46;;;;;;;;;;;;;;;11.92;88.52;100542.25;5027248;28;19913;-74
2023/03/30 07:56:12;;;;;;;;;;;;;;;11.96;88.29;100554.16;5027208;28;19924;-74
2023/03/30 07:58:38;;;;;;;;;;;;;;;12.02;87.46;100556.06;5020315;28;19979;-73
2023/03/30 08:01:03;;;;;;;;;;;;;;;11.96;87.96;100549.66;5024114;28;20000;-74
2023/03/30 08:03:30;;;;;;;;;;;;;;;12.05;87.55;100553.84;5022350;28;19921;-73
2023/03/30 08:05:59;;;;;;;;;;;;;;;12.09;87.22;100548.97;5023842;28;19920;-73
2023/03/30 08:08:24;;;;;;;;;;;;;;;12.18;86.65;100552.38;5025116;28;20004;-74
2023/03/30 08:10:50;;;;;;;;;;;;;;;12.19;86.23;100564.66;5025208;28;19933;-73
2023/03/30 08:13:15;;;;;;;;;;;;;;;12.20;85.50;100555.66;5028145;28;19917;-74
2023/03/30 08:15:40;;;;;;;;;;;;;;;12.21;84.81;100568.78;5028169;28;20016;-74
2023/03/30 08:18:06;;;;;;;;;;;;;;;12.22;84.49;100569.63;5025529;28;19928;-73
2023/03/30 08:20:36;;;;;;;;;;;;;;;12.23;84.81;100550.78;5019208;28;19925;-73
2023/03/30 08:23:02;;;;;;;;;;;;;;;12.27;84.48;100559.22;5022138;28;19928;-74
2023/03/30 08:25:27;;;;;;;;;;;;;;;12.34;83.84;100573.44;5021326;28;19937;-73
2023/03/30 08:27:52;;;;;;;;;;;;;;;12.30;83.75;100561.50;5025389;28;19917;-73
2023/03/30 08:30:18;;;;;;;;;;;;;;;12.35;82.81;100575.91;5021080;28;20025;-73
2023/03/30 08:32:43;;;;;;;;;;;;;;;12.34;83.53;100568.09;5024036;28;19944;-73
2023/03/30 08:35:08;;;;;;;;;;;;;;;12.44;82.92;100579.28;5028398;28;19925;-75
2023/03/30 08:37:33;;;;;;;;;;;;;;;12.36;82.75;100584.72;5002823;28;19921;-74
2023/03/30 08:39:58;;;;;;;;;;;;;;;12.42;82.13;100597.25;5021960;28;20375;-74
2023/03/30 08:42:42;;;;;;;;;;;;;;;12.44;81.42;100565.97;5019513;28;19925;-73
2023/03/30 08:45:09;;;;;;;;;;;;;;;12.45;81.73;100567.63;5025150;28;19968;-73
2023/03/30 08:47:37;;;;;;;;;;;;;;;12.52;81.60;100570.34;5019144;28;19922;-76
2023/03/30 08:50:07;;;;;;;;;;;;;;;12.67;81.63;100577.25;5014219;28;20462;-74
2023/03/30 08:52:32;;;;;;;;;;;;;;;12.85;81.31;100581.31;5024556;28;19925;-74
2023/03/30 08:54:58;;;;;;;;;;;;;;;12.85;80.40;100570.66;5022450;28;19924;-73
2023/03/30 08:57:30;;;;;;;;;;;;;;;12.77;78.64;100568.13;5028502;28;19913;-75
2023/03/30 09:00:11;;;;;;;;;;;;;;;12.74;78.58;100574.66;5027934;28;19948;-73
2023/03/30 09:02:41;;;;;;;;;;;;;;;12.84;78.45;100596.47;5023954;28;19921;-73
2023/03/30 09:05:28;;;;;;;;;;;;;;;13.03;77.98;100579.84;5023243;28;20361;-73
2023/03/30 09:08:01;;;;;;;;;;;;;;;13.08;77.66;100592.59;5025374;28;20465;-74
2023/03/30 09:10:28;;;;;;;;;;;;;;;13.08;76.67;100600.59;5025508;28;19960;-74
2023/03/30 09:12:56;;;;;;;;;;;;;;;13.13;76.76;100600.00;5019836;28;19971;-74
2023/03/30 09:15:25;;;;;;;;;;;;;;;13.01;75.95;100589.03;5021644;28;20056;-74
2023/03/30 09:17:54;;;;;;;;;;;;;;;12.98;75.62;100600.06;5020274;28;19917;-74
2023/03/30 09:20:21;;;;;;;;;;;;;;;12.91;75.32;100615.19;5019232;28;19964;-75
2023/03/30 09:22:47;;;;;;;;;;;;;;;12.79;75.43;100600.72;5023327;28;19995;-74
2023/03/30 09:25:14;;;;;;;;;;;;;;;12.77;76.88;100584.13;5020741;28;19925;-75
2023/03/30 09:27:51;;;;;;;;;;;;;;;12.96;76.92;100589.59;5018193;28;20374;-74
2023/03/30 09:30:21;;;;;;;;;;;;;;;13.11;76.64;100607.38;5019975;28;19921;-74
2023/03/30 09:32:58;;;;;;;;;;;;;;;13.14;75.53;100610.47;5020928;28;19979;-74
2023/03/30 09:35:31;;;;;;;;;;;;;;;13.31;76.55;100619.88;5026962;28;20412;-74
2023/03/30 09:37:56;;;;;;;;;;;;;;;13.58;74.41;100614.69;5021825;28;19975;-74
2023/03/30 09:40:28;;;;;;;;;;;;;;;13.42;73.53;100604.34;5020939;28;20362;-75
2023/03/30 09:43:25;;;;;;;;;;;;;;;13.35;73.28;100614.16;5019426;28;20407;-75
2023/03/30 09:45:51;;;;;;;;;;;;;;;13.47;73.58;100624.09;4990664;28;19917;-74
2023/03/30 09:48:16;;;;;;;;;;;;;;;13.40;72.90;100633.88;5026189;28;19924;-76
2023/03/30 09:50:43;;;;;;;;;;;;;;;13.55;72.72;100610.59;5017341;28;20354;-74
2023/03/30 09:53:17;;;;;;;;;;;;;;;13.65;72.22;100623.59;5017491;28;19921;-75
2023/03/30 09:55:52;;;;;;;;;;;;;;;13.78;72.22;100637.00;5025673;28;19921;-74
2023/03/30 09:58:19;;;;;;;;;;;;;;;13.86;70.83;100649.38;5020675;28;19932;-74
2023/03/30 10:00:45;;;;;;;;;;;;;;;13.86;70.63;100644.03;5028403;28;20468;-74
2023/03/30 10:03:21;;;;;;;;;;;;;;;13.79;70.05;100646.66;5026527;28;19959;-74
2023/03/30 10:05:58;;;;;;;;;;;;;;;13.75;69.90;100636.59;5023505;28;20064;-75
2023/03/30 10:08:23;;;;;;;;;;;;;;;13.75;70.35;100645.41;5031028;28;19917;-73
2023/03/30 10:10:53;;;;;;;;;;;;;;;13.74;70.08;100646.44;5010482;28;19967;-75
2023/03/30 10:13:19;;;;;;;;;;;;;;;13.73;70.65;100639.44;5024750;28;19977;-74
2023/03/30 10:15:47;;;;;;;;;;;;;;;13.66;70.23;100664.44;5021710;28;20337;-75
2023/03/30 10:18:24;;;;;;;;;;;;;;;13.51;70.21;100656.53;5023735;28;19921;-74
2023/03/30 10:20:51;;;;;;;;;;;;;;;13.50;70.72;100636.22;5029034;28;20382;-74
2023/03/30 10:23:18;;;;;;;;;;;;;;;13.53;70.31;100647.31;5029761;28;20333;-74
2023/03/30 10:25:45;;;;;;;;;;;;;;;13.57;70.65;100661.91;5030495;28;19924;-74
2023/03/30 10:28:15;;;;;;;;;;;;;;;13.66;70.53;100651.94;5029568;28;19917;-74
2023/03/30 10:30:41;;;;;;;;;;;;;;;13.67;70.33;100650.09;5030607;28;19971;-74
2023/03/30 10:33:08;;;;;;;;;;;;;;;13.66;69.96;100667.13;5027252;28;19913;-74
2023/03/30 10:35:36;;;;;;;;;;;;;;;13.82;70.80;100656.94;5031506;28;20448;-74
2023/03/30 10:38:03;;;;;;;;;;;;;;;13.91;69.60;100646.97;5030062;28;19928;-75
2023/03/30 10:40:35;;;;;;;;;;;;;;;14.19;69.91;100644.22;5028543;28;19917;-74
2023/03/30 10:43:01;;;;;;;;;;;;;;;14.39;69.95;100661.13;5028341;28;19913;-74
2023/03/30 10:45:42;;;;;;;;;;;;;;;14.43;68.58;100658.91;5030566;28;19913;-73
2023/03/30 10:48:08;;;;;;;;;;;;;;;14.33;67.75;100669.94;5028692;28;19982;-74
2023/03/30 10:50:55;;;;;;;;;;;;;;;14.25;67.59;100667.47;5027639;28;19921;-76
2023/03/30 10:53:29;;;;;;;;;;;;;;;14.15;67.51;100672.31;5023271;28;19924;-74
2023/03/30 10:56:13;;;;;;;;;;;;;;;14.08;67.71;100648.25;5019563;28;20013;-74
2023/03/30 10:58:51;;;;;;;;;;;;;;;14.09;68.58;100659.75;5026210;28;19925;-74
2023/03/30 11:01:28;;;;;;;;;;;;;;;14.10;68.81;100674.75;5027773;28;20373;-74
2023/03/30 11:03:57;;;;;;;;;;;;;;;14.00;67.65;100645.75;5022608;28;20286;-74
2023/03/30 11:06:25;;;;;;;;;;;;;;;14.01;68.19;100641.25;5017435;28;19925;-73
2023/03/30 11:08:52;;;;;;;;;;;;;;;14.07;67.75;100651.94;5017098;28;20333;-74
2023/03/30 11:11:20;;;;;;;;;;;;;;;14.03;67.92;100668.56;5023831;28;20444;-73
2023/03/30 11:13:52;;;;;;;;;;;;;;;14.14;68.33;100660.00;5021081;28;20306;-74
2023/03/30 11:16:22;;;;;;;;;;;;;;;14.24;68.58;100647.94;5021234;28;19966;-74
2023/03/30 11:18:53;;;;;;;;;;;;;;;14.47;69.08;100657.50;5024330;28;20055;-73
2023/03/30 11:21:23;;;;;;;;;;;;;;;14.92;67.78;100655.16;5021766;28;19967;-73
2023/03/30 11:23:55;;;;;;;;;;;;;;;15.13;66.75;100669.16;5020842;28;19917;-73
2023/03/30 11:26:39;;;;;;;;;;;;;;;15.10;65.77;100653.53;5007187;28;20055;-74
2023/03/30 11:29:23;;;;;;;;;;;;;;;15.07;66.23;100661.16;5022776;28;19956;-73
2023/03/30 11:31:51;;;;;;;;;;;;;;;15.12;66.46;100667.53;5025770;28;19960;-74
2023/03/30 11:34:19;;;;;;;;;;;;;;;15.34;66.17;100646.75;5022374;28;19988;-74
2023/03/30 11:36:48;;;;;;;;;;;;;;;15.50;65.06;100642.81;5025611;28;19917;-74
2023/03/30 11:39:15;;;;;;;;;;;;;;;15.48;64.51;100658.25;5025228;28;20268;-74
2023/03/30 11:41:43;;;;;;;;;;;;;;;15.30;64.17;100668.75;5028711;28;20004;-75
2023/03/30 11:44:09;;;;;;;;;;;;;;;15.18;64.23;100664.03;5020415;28;19924;-74
2023/03/30 11:46:41;;;;;;;;;;;;;;;15.08;65.30;100663.63;5024839;28;19967;-74
2023/03/30 11:49:28;;;;;;;;;;;;;;;14.70;68.27;100659.81;5024196;28;19923;-75
2023/03/30 11:51:53;;;;;;;;;;;;;;;14.63;70.26;100659.00;5018232;28;20022;-74
2023/03/30 11:54:25;;;;;;;;;;;;;;;14.81;68.78;100635.19;5026934;28;20427;-74
2023/03/30 11:57:09;;;;;;;;;;;;;;;14.87;67.75;100655.75;5028970;28;19913;-74
2023/03/30 11:59:41;;;;;;;;;;;;;;;14.70;66.29;100689.22;5028400;28;19972;-74
2023/03/30 12:02:29;;;;;;;;;;;;;;;14.68;66.13;100675.25;5024647;28;19939;-74
2023/03/30 12:04:59;;;;;;;;;;;;;;;14.36;65.71;100664.22;5020782;28;19939;-74
2023/03/30 12:07:43;;;;;;;;;;;;;;;14.26;66.78;100677.94;5025521;28;20281;-74
2023/03/30 12:10:13;;;;;;;;;;;;;;;14.03;67.78;100689.94;5027172;28;19921;-74
2023/03/30 12:12:40;;;;;;;;;;;;;;;14.03;69.43;100690.75;5024172;28;20337;-74
2023/03/30 12:15:05;;;;;;;;;;;;;;;14.05;68.98;100699.41;5028084;28;19943;-74
2023/03/30 12:17:37;;;;;;;;;;;;;;;14.01;70.19;100667.94;5020612;28;20379;-74
2023/03/30 12:20:06;;;;;;;;;;;;;;;14.03;70.97;100681.91;5027773;28;19924;-74
2023/03/30 12:22:37;;;;;;;;;;;;;;;14.03;70.88;100671.25;5027058;28;20134;-73
2023/03/30 12:25:21;;;;;;;;;;;;;;;14.01;70.52;100683.97;5021597;28;20004;-74
2023/03/30 12:27:57;;;;;;;;;;;;;;;14.08;69.22;100690.16;5024243;28;19921;-73
2023/03/30 12:30:25;;;;;;;;;;;;;;;14.38;69.10;100688.06;5027146;28;19921;-66
2023/03/30 12:32:56;;;;;;;;;;;;;;;14.59;68.58;100695.16;5018834;28;19923;-67
2023/03/30 12:35:40;;;;;;;;;;;;;;;14.67;66.48;100697.66;5020364;28;20383;-67
2023/03/30 12:38:05;;;;;;;;;;;;;;;14.79;66.91;100678.16;5019723;28;19932;-67
2023/03/30 12:40:30;;;;;;;;;;;;;;;15.00;66.14;100682.50;5026172;28;19917;-67
2023/03/30 12:43:04;;;;;;;;;;;;;;;14.92;65.41;100695.25;5018379;28;20422;-66